createdAt,value
2022-11-26T00:03:05.167Z,1024.5
2022-11-26T00:08:04.937Z,1024.4
2022-11-26T00:13:06.942Z,1024.4
2022-11-26T00:18:04.888Z,1024.3
2022-11-26T00:23:05.869Z,1024.3
2022-11-26T00:28:04.674Z,1024.3
2022-11-26T00:33:04.567Z,1024.4
2022-11-26T00:38:04.510Z,1024.4
2022-11-26T00:43:04.427Z,1024.5
2022-11-26T00:48:04.314Z,1024.5
2022-11-26T00:53:04.214Z,1024.4
2022-11-26T00:58:04.118Z,1024.3
2022-11-26T01:03:04.027Z,1024.3
2022-11-26T01:08:03.978Z,1024.5
2022-11-26T01:18:03.963Z,1024.5
2022-11-26T01:23:03.932Z,1024.4
2022-11-26T01:28:03.778Z,1024.5
2022-11-26T01:33:03.700Z,1024.5
2022-11-26T01:38:03.720Z,1024.5
2022-11-26T01:43:03.596Z,1024.6
2022-11-26T01:48:03.551Z,1024.5
2022-11-26T01:53:03.541Z,1024.5
2022-11-26T01:58:07.468Z,1024.5
2022-11-26T02:03:03.366Z,1024.5
2022-11-26T02:08:03.283Z,1024.5
2022-11-26T02:13:03.202Z,1024.4
2022-11-26T02:18:03.111Z,1024.5
2022-11-26T02:23:05.028Z,1024.6
2022-11-26T02:28:02.935Z,1024.5
2022-11-26T02:33:02.915Z,1024.6
2022-11-26T02:48:02.599Z,1024.6
2022-11-26T02:53:02.628Z,1024.5
2022-11-26T02:58:02.463Z,1024.4
2022-11-26T03:03:02.359Z,1024.5
2022-11-26T03:08:02.802Z,1024.5
2022-11-26T03:13:02.164Z,1024.5
2022-11-26T03:18:02.019Z,1024.6
2022-11-26T03:23:01.962Z,1024.5
2022-11-26T03:28:01.877Z,1024.5
2022-11-26T03:33:01.786Z,1024.6
2022-11-26T03:38:01.735Z,1024.6
2022-11-26T03:43:01.669Z,1024.6
2022-11-26T03:53:01.531Z,1024.4
2022-11-26T03:58:01.425Z,1024.4
2022-11-26T04:03:01.383Z,1024.3
2022-11-26T04:08:01.289Z,1024.2
2022-11-26T04:13:01.209Z,1024.3
2022-11-26T04:18:03.099Z,1024.3
2022-11-26T04:23:01.443Z,1024.2
2022-11-26T04:28:00.997Z,1024.2
2022-11-26T04:33:00.849Z,1024.1
2022-11-26T04:38:00.770Z,1024.3
2022-11-26T04:43:00.712Z,1024.3
2022-11-26T04:48:00.629Z,1024.4
2022-11-26T04:53:00.565Z,1024.4
2022-11-26T04:58:00.433Z,1024.4
2022-11-26T05:03:00.519Z,1024.4
2022-11-26T05:08:00.420Z,1024.3
2022-11-26T05:13:00.267Z,1024.3
2022-11-26T05:18:00.197Z,1024.3
2022-11-26T05:23:00.176Z,1024.3
2022-11-26T05:28:00.114Z,1024.2
2022-11-26T05:33:00.073Z,1024.2
2022-11-26T05:37:59.942Z,1024.1
2022-11-26T05:42:59.909Z,1024.1
2022-11-26T05:47:59.881Z,1024.2
2022-11-26T05:52:59.908Z,1024.3
2022-11-26T05:58:00.424Z,1024.4
2022-11-26T06:02:59.788Z,1024.4
2022-11-26T06:07:59.665Z,1024.5
2022-11-26T06:12:59.619Z,1024.3
2022-11-26T06:17:59.469Z,1024.2
2022-11-26T06:22:59.410Z,1024.2
2022-11-26T06:27:59.388Z,1024.1
2022-11-26T06:32:59.339Z,1024.1
2022-11-26T06:37:59.305Z,1024.1
2022-11-26T06:43:01.304Z,1024.2
2022-11-26T06:47:59.201Z,1024.3
2022-11-26T06:52:59.119Z,1024.4
2022-11-26T06:57:59.074Z,1024.4
2022-11-26T07:02:59.166Z,1024.3
2022-11-26T07:07:59.078Z,1024.2
2022-11-26T07:12:58.945Z,1023.9
2022-11-26T07:17:59.000Z,1024.2
2022-11-26T07:22:58.836Z,1024.0
2022-11-26T07:27:58.763Z,1024.2
2022-11-26T07:32:58.722Z,1024.0
2022-11-26T07:37:58.721Z,1024.0
2022-11-26T07:42:58.651Z,1023.9
2022-11-26T07:47:58.554Z,1023.9
2022-11-26T07:53:00.637Z,1023.8
2022-11-26T07:57:58.407Z,1023.7
2022-11-26T08:02:58.436Z,1023.7
2022-11-26T08:08:00.361Z,1023.8
2022-11-26T08:12:58.305Z,1023.9
2022-11-26T08:17:58.239Z,1024.1
2022-11-26T08:22:58.559Z,1024.1
2022-11-26T08:27:58.167Z,1024.1
2022-11-26T08:32:58.156Z,1024.1
2022-11-26T08:37:58.114Z,1023.9
2022-11-26T08:43:03.736Z,1024.0
2022-11-26T08:47:58.036Z,1024.0
2022-11-26T08:52:57.997Z,1023.9
2022-11-26T08:57:57.949Z,1023.9
2022-11-26T09:02:57.981Z,1023.9
2022-11-26T09:07:57.977Z,1023.8
2022-11-26T09:12:59.203Z,1023.9
2022-11-26T09:17:57.843Z,1023.9
2022-11-26T09:22:57.936Z,1023.8
2022-11-26T09:27:57.967Z,1023.8
2022-11-26T09:32:58.282Z,1023.7
2022-11-26T09:37:58.081Z,1023.7
2022-11-26T09:42:58.227Z,1023.8
2022-11-26T09:47:58.284Z,1023.8
2022-11-26T09:52:58.350Z,1023.9
2022-11-26T09:58:00.447Z,1023.8
2022-11-26T10:02:58.522Z,1023.8
2022-11-26T10:07:58.710Z,1023.9
2022-11-26T10:13:17.843Z,1023.8
2022-11-26T10:18:00.126Z,1023.8
2022-11-26T10:22:58.810Z,1023.7
2022-11-26T10:27:58.896Z,1023.7
2022-11-26T10:32:59.021Z,1023.7
2022-11-26T10:37:59.168Z,1023.7
2022-11-26T10:42:59.253Z,1023.8
2022-11-26T10:47:59.358Z,1023.7
2022-11-26T10:52:59.539Z,1023.7
2022-11-26T10:57:59.612Z,1023.6
2022-11-26T11:02:59.746Z,1023.6
2022-11-26T11:07:59.899Z,1023.6
2022-11-26T11:12:59.979Z,1023.7
2022-11-26T11:18:00.102Z,1023.6
2022-11-26T11:28:00.378Z,1023.4
2022-11-26T11:33:00.530Z,1023.3
2022-11-26T11:38:00.615Z,1023.2
2022-11-26T11:43:00.696Z,1023.3
2022-11-26T11:48:00.813Z,1023.2
2022-11-26T11:53:01.022Z,1023.1
2022-11-26T11:58:01.113Z,1022.9
2022-11-26T12:03:01.270Z,1022.9
2022-11-26T12:08:01.433Z,1022.9
2022-11-26T12:13:01.530Z,1022.9
2022-11-26T12:18:01.682Z,1022.8
2022-11-26T12:23:01.812Z,1022.6
2022-11-26T12:28:01.916Z,1022.7
2022-11-26T12:33:02.060Z,1022.7
2022-11-26T12:38:02.425Z,1022.6
2022-11-26T12:43:02.403Z,1022.6
2022-11-26T12:48:06.465Z,1022.6
2022-11-26T12:53:02.636Z,1022.5
2022-11-26T12:58:02.694Z,1022.4
2022-11-26T13:03:02.822Z,1022.3
2022-11-26T13:08:03.075Z,1022.2
2022-11-26T13:13:03.125Z,1022.1
2022-11-26T13:18:05.764Z,1022.0
2022-11-26T13:23:03.373Z,1021.9
2022-11-26T13:28:03.483Z,1021.8
2022-11-26T13:33:03.604Z,1021.6
2022-11-26T13:38:03.738Z,1021.6
2022-11-26T13:43:03.829Z,1021.6
2022-11-26T13:48:04.005Z,1021.6
2022-11-26T13:58:04.353Z,1021.5
2022-11-26T14:03:04.371Z,1021.5
2022-11-26T14:08:04.497Z,1021.5
2022-11-26T14:13:04.641Z,1021.4
2022-11-26T14:18:04.814Z,1021.3
2022-11-26T14:23:05.986Z,1021.4
2022-11-26T14:28:05.058Z,1021.3
2022-11-26T14:33:05.188Z,1021.4
2022-11-26T14:38:05.373Z,1021.3
2022-11-26T14:43:05.442Z,1021.4
2022-11-26T14:48:05.546Z,1021.2
2022-11-26T14:53:05.759Z,1021.2
2022-11-26T14:58:09.232Z,1021.1
2022-11-26T15:03:06.119Z,1021.1
2022-11-26T15:08:06.033Z,1021.1
2022-11-26T15:13:06.201Z,1021.1
2022-11-26T15:18:06.356Z,1020.9
2022-11-26T15:23:06.454Z,1020.8
2022-11-26T15:28:06.649Z,1020.8
2022-11-26T15:33:06.651Z,1020.6
2022-11-26T15:38:08.735Z,1020.5
2022-11-26T15:43:06.828Z,1020.5
2022-11-26T15:48:07.463Z,1020.3
2022-11-26T15:53:07.612Z,1020.3
2022-11-26T15:58:07.070Z,1020.1
2022-11-26T16:03:07.179Z,1020.1
2022-11-26T16:08:07.344Z,1019.8
2022-11-26T16:13:07.358Z,1019.9
2022-11-26T16:18:07.330Z,1019.7
2022-11-26T16:23:07.395Z,1019.6
2022-11-26T16:28:07.439Z,1019.6
2022-11-26T16:33:07.498Z,1019.6
2022-11-26T16:38:07.525Z,1019.5
2022-11-26T16:43:07.607Z,1019.4
2022-11-26T16:48:07.660Z,1019.3
2022-11-26T16:53:07.676Z,1019.3
2022-11-26T16:58:09.738Z,1019.3
2022-11-26T17:03:13.080Z,1019.4
2022-11-26T17:08:07.759Z,1019.5
2022-11-26T17:13:07.829Z,1019.5
2022-11-26T17:18:07.808Z,1019.3
2022-11-26T17:23:07.837Z,1019.3
2022-11-26T17:28:07.983Z,1019.3
2022-11-26T17:33:07.962Z,1019.3
2022-11-26T17:38:09.066Z,1019.4
2022-11-26T17:48:08.066Z,1019.3
2022-11-26T17:53:08.105Z,1019.2
2022-11-26T17:58:08.063Z,1019.1
2022-11-26T18:03:08.244Z,1019.0
2022-11-26T18:08:08.206Z,1019.0
2022-11-26T18:13:08.292Z,1019.0
2022-11-26T18:18:08.334Z,1019.0
2022-11-26T18:23:15.774Z,1019.0
2022-11-26T18:28:08.621Z,1019.0
2022-11-26T18:33:08.681Z,1018.8
2022-11-26T18:38:08.506Z,1018.7
2022-11-26T18:43:08.631Z,1018.6
2022-11-26T18:48:09.738Z,1018.7
2022-11-26T18:53:08.747Z,1018.6
2022-11-26T18:58:08.855Z,1018.7
2022-11-26T19:03:08.832Z,1018.6
2022-11-26T19:08:08.904Z,1018.5
2022-11-26T19:13:08.852Z,1018.4
2022-11-26T19:18:08.867Z,1018.4
2022-11-26T19:23:08.907Z,1018.4
2022-11-26T19:28:11.500Z,1018.3
2022-11-26T19:33:09.064Z,1018.2
2022-11-26T19:38:09.112Z,1018.0
2022-11-26T19:43:09.174Z,1018.1
2022-11-26T19:48:09.203Z,1018.0
2022-11-26T19:53:09.261Z,1017.9
2022-11-26T19:58:09.314Z,1017.9
2022-11-26T20:03:09.298Z,1017.8
2022-11-26T20:08:09.409Z,1017.8
2022-11-26T20:13:10.122Z,1017.6
2022-11-26T20:18:09.613Z,1017.5
2022-11-26T20:23:09.584Z,1017.6
2022-11-26T20:28:09.639Z,1017.4
2022-11-26T20:33:09.690Z,1017.2
2022-11-26T20:38:09.746Z,1017.1
2022-11-26T20:43:09.821Z,1017.1
2022-11-26T20:48:10.081Z,1017.1
2022-11-26T20:53:09.935Z,1017.0
2022-11-26T20:58:14.079Z,1016.9
2022-11-26T21:03:10.050Z,1016.8
2022-11-26T21:08:10.140Z,1016.7
2022-11-26T21:13:10.265Z,1016.7
2022-11-26T21:23:10.476Z,1016.6
2022-11-26T21:28:10.451Z,1016.4
2022-11-26T21:33:10.471Z,1016.4
2022-11-26T21:38:10.543Z,1016.5
2022-11-26T21:43:10.581Z,1016.3
2022-11-26T21:48:10.603Z,1016.2
2022-11-26T21:53:10.623Z,1016.1
2022-11-26T21:58:10.670Z,1016.1
2022-11-26T22:08:10.744Z,1016.1
2022-11-26T22:13:10.848Z,1016.0
2022-11-26T22:18:10.821Z,1016.0
2022-11-26T22:23:13.068Z,1015.9
2022-11-26T22:28:10.973Z,1015.8
2022-11-26T22:33:11.105Z,1015.7
2022-11-26T22:38:11.112Z,1015.7
2022-11-26T22:43:11.183Z,1015.7
2022-11-26T22:48:11.237Z,1015.6
2022-11-26T22:53:11.288Z,1015.5
2022-11-26T22:58:13.323Z,1015.4
2022-11-26T23:03:11.616Z,1015.4
2022-11-26T23:08:11.664Z,1015.3
2022-11-26T23:13:11.757Z,1015.3
2022-11-26T23:18:11.779Z,1015.2
2022-11-26T23:23:11.973Z,1015.2
2022-11-26T23:28:11.829Z,1015.2
2022-11-26T23:33:11.930Z,1015.1
2022-11-26T23:38:12.034Z,1015.0
2022-11-26T23:43:12.156Z,1014.9
2022-11-26T23:48:12.248Z,1014.9
2022-11-26T23:53:12.321Z,1015.0
